sensor_id;sensor_type;location;lat;lon;timestamp;P1;P2;P0
55754;PMS5003;41674;52.290;-1.474;2023-04-24T00:00:40;33;27;
55754;PMS5003;41674;52.290;-1.474;2023-04-24T00:03:10;32;29;
55754;PMS5003;41674;52.290;-1.474;2023-04-24T00:05:39;31;25;
55754;PMS5003;41674;52.290;-1.474;2023-04-24T00:08:08;29;27;
55754;PMS5003;41674;52.290;-1.474;2023-04-24T00:10:38;29;27;
55754;PMS5003;41674;52.290;-1.474;2023-04-24T00:13:07;27;22;
55754;PMS5003;41674;52.290;-1.474;2023-04-24T00:15:37;34;32;
55754;PMS5003;41674;52.290;-1.474;2023-04-24T00:18:06;26;25;
55754;PMS5003;41674;52.290;-1.474;2023-04-24T00:20:35;27;26;
55754;PMS5003;41674;52.290;-1.474;2023-04-24T00:23:04;27;23;
55754;PMS5003;41674;52.290;-1.474;2023-04-24T00:25:33;36;29;
55754;PMS5003;41674;52.290;-1.474;2023-04-24T00:28:02;27;27;
55754;PMS5003;41674;52.290;-1.474;2023-04-24T00:30:31;31;28;
55754;PMS5003;41674;52.290;-1.474;2023-04-24T00:33:01;28;23;
55754;PMS5003;41674;52.290;-1.474;2023-04-24T00:35:30;29;26;
55754;PMS5003;41674;52.290;-1.474;2023-04-24T00:38:00;25;23;
55754;PMS5003;41674;52.290;-1.474;2023-04-24T00:40:29;26;26;
55754;PMS5003;41674;52.290;-1.474;2023-04-24T00:42:58;25;24;
55754;PMS5003;41674;52.290;-1.474;2023-04-24T00:45:28;29;25;
55754;PMS5003;41674;52.290;-1.474;2023-04-24T00:47:57;29;26;
55754;PMS5003;41674;52.290;-1.474;2023-04-24T00:50:26;34;29;
55754;PMS5003;41674;52.290;-1.474;2023-04-24T00:52:56;29;28;
55754;PMS5003;41674;52.290;-1.474;2023-04-24T00:55:25;29;25;
55754;PMS5003;41674;52.290;-1.474;2023-04-24T00:57:55;27;24;
55754;PMS5003;41674;52.290;-1.474;2023-04-24T01:00:24;29;27;
55754;PMS5003;41674;52.290;-1.474;2023-04-24T01:02:53;33;31;
55754;PMS5003;41674;52.290;-1.474;2023-04-24T01:05:22;32;28;
55754;PMS5003;41674;52.290;-1.474;2023-04-24T01:07:52;30;27;
55754;PMS5003;41674;52.290;-1.474;2023-04-24T01:10:21;28;28;
55754;PMS5003;41674;52.290;-1.474;2023-04-24T01:12:50;25;24;
55754;PMS5003;41674;52.290;-1.474;2023-04-24T01:15:20;32;29;
55754;PMS5003;41674;52.290;-1.474;2023-04-24T01:17:50;28;26;
55754;PMS5003;41674;52.290;-1.474;2023-04-24T01:20:19;35;27;
55754;PMS5003;41674;52.290;-1.474;2023-04-24T01:22:49;25;22;
55754;PMS5003;41674;52.290;-1.474;2023-04-24T01:27:48;27;26;
55754;PMS5003;41674;52.290;-1.474;2023-04-24T01:30:17;26;23;
55754;PMS5003;41674;52.290;-1.474;2023-04-24T01:32:47;20;19;
55754;PMS5003;41674;52.290;-1.474;2023-04-24T01:35:17;21;20;
55754;PMS5003;41674;52.290;-1.474;2023-04-24T01:37:46;22;19;
55754;PMS5003;41674;52.290;-1.474;2023-04-24T01:40:15;23;21;
55754;PMS5003;41674;52.290;-1.474;2023-04-24T01:42:45;20;16;
55754;PMS5003;41674;52.290;-1.474;2023-04-24T01:45:14;22;19;
55754;PMS5003;41674;52.290;-1.474;2023-04-24T01:47:44;20;18;
55754;PMS5003;41674;52.290;-1.474;2023-04-24T01:50:13;19;17;
55754;PMS5003;41674;52.290;-1.474;2023-04-24T01:52:43;19;18;
55754;PMS5003;41674;52.290;-1.474;2023-04-24T01:55:12;16;15;
55754;PMS5003;41674;52.290;-1.474;2023-04-24T01:57:41;13;13;
55754;PMS5003;41674;52.290;-1.474;2023-04-24T02:00:11;18;14;
55754;PMS5003;41674;52.290;-1.474;2023-04-24T02:02:41;16;13;
55754;PMS5003;41674;52.290;-1.474;2023-04-24T02:05:10;12;10;
55754;PMS5003;41674;52.290;-1.474;2023-04-24T02:07:39;10;9;
55754;PMS5003;41674;52.290;-1.474;2023-04-24T02:10:09;11;9;
55754;PMS5003;41674;52.290;-1.474;2023-04-24T02:12:39;9;9;
55754;PMS5003;41674;52.290;-1.474;2023-04-24T02:15:09;9;7;
55754;PMS5003;41674;52.290;-1.474;2023-04-24T02:17:38;8;7;
55754;PMS5003;41674;52.290;-1.474;2023-04-24T02:20:08;9;6;
55754;PMS5003;41674;52.290;-1.474;2023-04-24T02:22:37;9;9;
55754;PMS5003;41674;52.290;-1.474;2023-04-24T02:25:07;10;7;
55754;PMS5003;41674;52.290;-1.474;2023-04-24T02:27:36;7;6;
55754;PMS5003;41674;52.290;-1.474;2023-04-24T02:30:06;10;8;
55754;PMS5003;41674;52.290;-1.474;2023-04-24T02:32:35;9;7;
55754;PMS5003;41674;52.290;-1.474;2023-04-24T02:35:06;6;6;
55754;PMS5003;41674;52.290;-1.474;2023-04-24T02:37:35;5;4;
55754;PMS5003;41674;52.290;-1.474;2023-04-24T02:40:05;7;6;
55754;PMS5003;41674;52.290;-1.474;2023-04-24T02:42:34;11;7;
55754;PMS5003;41674;52.290;-1.474;2023-04-24T02:45:04;6;5;
55754;PMS5003;41674;52.290;-1.474;2023-04-24T02:47:33;6;6;
55754;PMS5003;41674;52.290;-1.474;2023-04-24T02:50:03;7;7;
55754;PMS5003;41674;52.290;-1.474;2023-04-24T02:52:33;6;6;
55754;PMS5003;41674;52.290;-1.474;2023-04-24T02:55:02;6;5;
55754;PMS5003;41674;52.290;-1.474;2023-04-24T02:57:32;6;6;
55754;PMS5003;41674;52.290;-1.474;2023-04-24T03:00:02;8;7;
55754;PMS5003;41674;52.290;-1.474;2023-04-24T03:02:31;10;8;
55754;PMS5003;41674;52.290;-1.474;2023-04-24T03:05:01;7;7;
55754;PMS5003;41674;52.290;-1.474;2023-04-24T03:07:30;6;4;
55754;PMS5003;41674;52.290;-1.474;2023-04-24T03:10:00;6;5;
55754;PMS5003;41674;52.290;-1.474;2023-04-24T03:12:30;9;6;
55754;PMS5003;41674;52.290;-1.474;2023-04-24T03:14:59;6;6;
55754;PMS5003;41674;52.290;-1.474;2023-04-24T03:17:29;10;9;
55754;PMS5003;41674;52.290;-1.474;2023-04-24T03:19:59;12;10;
55754;PMS5003;41674;52.290;-1.474;2023-04-24T03:22:28;4;4;
55754;PMS5003;41674;52.290;-1.474;2023-04-24T03:24:58;9;7;
55754;PMS5003;41674;52.290;-1.474;2023-04-24T03:27:27;13;8;
55754;PMS5003;41674;52.290;-1.474;2023-04-24T03:29:57;11;9;
55754;PMS5003;41674;52.290;-1.474;2023-04-24T03:32:26;7;7;
55754;PMS5003;41674;52.290;-1.474;2023-04-24T03:34:56;7;7;
55754;PMS5003;41674;52.290;-1.474;2023-04-24T03:37:26;8;8;
55754;PMS5003;41674;52.290;-1.474;2023-04-24T03:39:55;7;6;
55754;PMS5003;41674;52.290;-1.474;2023-04-24T03:42:25;6;6;
55754;PMS5003;41674;52.290;-1.474;2023-04-24T03:44:55;7;7;
55754;PMS5003;41674;52.290;-1.474;2023-04-24T03:47:24;6;6;
55754;PMS5003;41674;52.290;-1.474;2023-04-24T03:49:54;6;6;
55754;PMS5003;41674;52.290;-1.474;2023-04-24T03:54:53;9;8;
55754;PMS5003;41674;52.290;-1.474;2023-04-24T03:57:22;9;9;
55754;PMS5003;41674;52.290;-1.474;2023-04-24T03:59:52;10;9;
55754;PMS5003;41674;52.290;-1.474;2023-04-24T04:02:22;7;7;
55754;PMS5003;41674;52.290;-1.474;2023-04-24T04:04:51;8;5;
55754;PMS5003;41674;52.290;-1.474;2023-04-24T04:07:21;5;5;
55754;PMS5003;41674;52.290;-1.474;2023-04-24T04:09:50;6;6;
55754;PMS5003;41674;52.290;-1.474;2023-04-24T04:12:20;7;5;
55754;PMS5003;41674;52.290;-1.474;2023-04-24T04:14:50;7;7;
55754;PMS5003;41674;52.290;-1.474;2023-04-24T04:17:19;8;8;
55754;PMS5003;41674;52.290;-1.474;2023-04-24T04:19:49;7;7;
55754;PMS5003;41674;52.290;-1.474;2023-04-24T04:22:18;6;6;
55754;PMS5003;41674;52.290;-1.474;2023-04-24T04:24:48;8;5;
55754;PMS5003;41674;52.290;-1.474;2023-04-24T04:27:18;7;7;
55754;PMS5003;41674;52.290;-1.474;2023-04-24T04:29:47;6;6;
55754;PMS5003;41674;52.290;-1.474;2023-04-24T04:32:17;7;6;
55754;PMS5003;41674;52.290;-1.474;2023-04-24T04:34:46;10;7;
55754;PMS5003;41674;52.290;-1.474;2023-04-24T04:37:16;9;7;
55754;PMS5003;41674;52.290;-1.474;2023-04-24T04:39:46;11;10;
55754;PMS5003;41674;52.290;-1.474;2023-04-24T04:42:15;10;9;
55754;PMS5003;41674;52.290;-1.474;2023-04-24T04:44:45;7;6;
55754;PMS5003;41674;52.290;-1.474;2023-04-24T04:47:14;8;8;
55754;PMS5003;41674;52.290;-1.474;2023-04-24T04:49:44;9;9;
55754;PMS5003;41674;52.290;-1.474;2023-04-24T04:52:13;13;10;
55754;PMS5003;41674;52.290;-1.474;2023-04-24T04:54:43;11;10;
55754;PMS5003;41674;52.290;-1.474;2023-04-24T04:57:12;13;13;
55754;PMS5003;41674;52.290;-1.474;2023-04-24T04:59:41;10;7;
55754;PMS5003;41674;52.290;-1.474;2023-04-24T05:02:11;9;9;
55754;PMS5003;41674;52.290;-1.474;2023-04-24T05:04:41;11;9;
55754;PMS5003;41674;52.290;-1.474;2023-04-24T05:07:11;10;8;
55754;PMS5003;41674;52.290;-1.474;2023-04-24T05:09:40;9;9;
55754;PMS5003;41674;52.290;-1.474;2023-04-24T05:12:10;10;10;
55754;PMS5003;41674;52.290;-1.474;2023-04-24T05:14:39;10;10;
55754;PMS5003;41674;52.290;-1.474;2023-04-24T05:17:09;8;8;
55754;PMS5003;41674;52.290;-1.474;2023-04-24T05:19:38;11;8;
55754;PMS5003;41674;52.290;-1.474;2023-04-24T05:22:08;11;10;
55754;PMS5003;41674;52.290;-1.474;2023-04-24T05:24:37;8;8;
55754;PMS5003;41674;52.290;-1.474;2023-04-24T05:27:06;7;7;
55754;PMS5003;41674;52.290;-1.474;2023-04-24T05:29:36;11;9;
55754;PMS5003;41674;52.290;-1.474;2023-04-24T05:32:06;7;7;
55754;PMS5003;41674;52.290;-1.474;2023-04-24T05:34:36;7;7;
55754;PMS5003;41674;52.290;-1.474;2023-04-24T05:37:05;9;8;
55754;PMS5003;41674;52.290;-1.474;2023-04-24T05:39:35;9;8;
55754;PMS5003;41674;52.290;-1.474;2023-04-24T05:42:05;8;8;
55754;PMS5003;41674;52.290;-1.474;2023-04-24T05:44:34;9;9;
55754;PMS5003;41674;52.290;-1.474;2023-04-24T05:47:04;3;3;
55754;PMS5003;41674;52.290;-1.474;2023-04-24T05:49:33;8;6;
55754;PMS5003;41674;52.290;-1.474;2023-04-24T05:52:03;7;6;
55754;PMS5003;41674;52.290;-1.474;2023-04-24T05:54:32;7;6;
55754;PMS5003;41674;52.290;-1.474;2023-04-24T05:57:02;7;4;
55754;PMS5003;41674;52.290;-1.474;2023-04-24T05:59:32;4;4;
55754;PMS5003;41674;52.290;-1.474;2023-04-24T06:02:01;6;6;
55754;PMS5003;41674;52.290;-1.474;2023-04-24T06:04:31;7;5;
55754;PMS5003;41674;52.290;-1.474;2023-04-24T06:07:01;5;5;
55754;PMS5003;41674;52.290;-1.474;2023-04-24T06:09:30;5;4;
55754;PMS5003;41674;52.290;-1.474;2023-04-24T06:12:00;7;5;
55754;PMS5003;41674;52.290;-1.474;2023-04-24T06:14:29;5;4;
55754;PMS5003;41674;52.290;-1.474;2023-04-24T06:16:59;5;4;
55754;PMS5003;41674;52.290;-1.474;2023-04-24T06:19:28;7;5;
55754;PMS5003;41674;52.290;-1.474;2023-04-24T06:21:58;5;4;
55754;PMS5003;41674;52.290;-1.474;2023-04-24T06:24:28;4;4;
55754;PMS5003;41674;52.290;-1.474;2023-04-24T06:26:57;3;3;
55754;PMS5003;41674;52.290;-1.474;2023-04-24T06:29:27;4;4;
55754;PMS5003;41674;52.290;-1.474;2023-04-24T06:31:57;4;4;
55754;PMS5003;41674;52.290;-1.474;2023-04-24T06:34:26;3;2;
55754;PMS5003;41674;52.290;-1.474;2023-04-24T06:36:56;2;2;
55754;PMS5003;41674;52.290;-1.474;2023-04-24T06:39:25;3;3;
55754;PMS5003;41674;52.290;-1.474;2023-04-24T06:41:55;3;3;
55754;PMS5003;41674;52.290;-1.474;2023-04-24T06:44:25;3;3;
55754;PMS5003;41674;52.290;-1.474;2023-04-24T06:46:54;2;1;
55754;PMS5003;41674;52.290;-1.474;2023-04-24T06:49:24;2;2;
55754;PMS5003;41674;52.290;-1.474;2023-04-24T06:51:54;3;3;
55754;PMS5003;41674;52.290;-1.474;2023-04-24T06:54:23;4;2;
55754;PMS5003;41674;52.290;-1.474;2023-04-24T06:56:53;5;4;
55754;PMS5003;41674;52.290;-1.474;2023-04-24T06:59:23;2;2;
55754;PMS5003;41674;52.290;-1.474;2023-04-24T07:01:52;2;2;
55754;PMS5003;41674;52.290;-1.474;2023-04-24T07:04:22;3;3;
55754;PMS5003;41674;52.290;-1.474;2023-04-24T07:06:52;4;3;
55754;PMS5003;41674;52.290;-1.474;2023-04-24T07:09:21;4;4;
55754;PMS5003;41674;52.290;-1.474;2023-04-24T07:11:56;2;2;
55754;PMS5003;41674;52.290;-1.474;2023-04-24T07:14:20;5;4;
55754;PMS5003;41674;52.290;-1.474;2023-04-24T07:16:50;7;3;
55754;PMS5003;41674;52.290;-1.474;2023-04-24T07:19:20;5;3;
55754;PMS5003;41674;52.290;-1.474;2023-04-24T07:21:49;8;6;
55754;PMS5003;41674;52.290;-1.474;2023-04-24T07:24:19;4;4;
55754;PMS5003;41674;52.290;-1.474;2023-04-24T07:26:48;3;2;
55754;PMS5003;41674;52.290;-1.474;2023-04-24T07:29:18;6;5;
55754;PMS5003;41674;52.290;-1.474;2023-04-24T07:31:47;5;3;
55754;PMS5003;41674;52.290;-1.474;2023-04-24T07:34:17;5;3;
55754;PMS5003;41674;52.290;-1.474;2023-04-24T07:36:47;4;4;
55754;PMS5003;41674;52.290;-1.474;2023-04-24T07:39:17;4;4;
55754;PMS5003;41674;52.290;-1.474;2023-04-24T07:41:46;4;3;
55754;PMS5003;41674;52.290;-1.474;2023-04-24T07:44:16;5;5;
55754;PMS5003;41674;52.290;-1.474;2023-04-24T07:46:45;3;3;
55754;PMS5003;41674;52.290;-1.474;2023-04-24T07:49:15;4;4;
55754;PMS5003;41674;52.290;-1.474;2023-04-24T07:51:45;4;3;
55754;PMS5003;41674;52.290;-1.474;2023-04-24T07:54:14;5;5;
55754;PMS5003;41674;52.290;-1.474;2023-04-24T07:56:44;5;3;
55754;PMS5003;41674;52.290;-1.474;2023-04-24T07:59:13;3;3;
55754;PMS5003;41674;52.290;-1.474;2023-04-24T08:01:43;3;3;
55754;PMS5003;41674;52.290;-1.474;2023-04-24T08:04:13;4;2;
55754;PMS5003;41674;52.290;-1.474;2023-04-24T08:06:42;4;3;
55754;PMS5003;41674;52.290;-1.474;2023-04-24T08:09:12;3;3;
55754;PMS5003;41674;52.290;-1.474;2023-04-24T08:11:41;3;3;
55754;PMS5003;41674;52.290;-1.474;2023-04-24T08:14:11;2;2;
55754;PMS5003;41674;52.290;-1.474;2023-04-24T08:16:41;4;3;
55754;PMS5003;41674;52.290;-1.474;2023-04-24T08:19:10;5;5;
55754;PMS5003;41674;52.290;-1.474;2023-04-24T08:21:40;3;3;
55754;PMS5003;41674;52.290;-1.474;2023-04-24T08:24:09;3;3;
55754;PMS5003;41674;52.290;-1.474;2023-04-24T08:26:39;3;3;
55754;PMS5003;41674;52.290;-1.474;2023-04-24T08:29:09;4;4;
55754;PMS5003;41674;52.290;-1.474;2023-04-24T08:31:38;2;2;
55754;PMS5003;41674;52.290;-1.474;2023-04-24T08:34:09;5;3;
55754;PMS5003;41674;52.290;-1.474;2023-04-24T08:36:38;4;4;
55754;PMS5003;41674;52.290;-1.474;2023-04-24T08:39:07;3;3;
55754;PMS5003;41674;52.290;-1.474;2023-04-24T08:41:37;2;2;
55754;PMS5003;41674;52.290;-1.474;2023-04-24T08:44:06;4;3;
55754;PMS5003;41674;52.290;-1.474;2023-04-24T08:46:36;3;3;
55754;PMS5003;41674;52.290;-1.474;2023-04-24T08:49:06;2;2;
55754;PMS5003;41674;52.290;-1.474;2023-04-24T08:51:36;4;2;
55754;PMS5003;41674;52.290;-1.474;2023-04-24T08:54:05;3;3;
55754;PMS5003;41674;52.290;-1.474;2023-04-24T08:56:35;4;4;
55754;PMS5003;41674;52.290;-1.474;2023-04-24T08:59:04;4;4;
55754;PMS5003;41674;52.290;-1.474;2023-04-24T09:01:34;4;4;
55754;PMS5003;41674;52.290;-1.474;2023-04-24T09:04:03;4;4;
55754;PMS5003;41674;52.290;-1.474;2023-04-24T09:06:33;4;2;
55754;PMS5003;41674;52.290;-1.474;2023-04-24T09:09:02;4;4;
55754;PMS5003;41674;52.290;-1.474;2023-04-24T09:11:32;6;3;
55754;PMS5003;41674;52.290;-1.474;2023-04-24T09:14:01;4;3;
55754;PMS5003;41674;52.290;-1.474;2023-04-24T09:16:31;4;2;
55754;PMS5003;41674;52.290;-1.474;2023-04-24T09:19:00;2;2;
55754;PMS5003;41674;52.290;-1.474;2023-04-24T09:24:00;5;4;
55754;PMS5003;41674;52.290;-1.474;2023-04-24T09:26:29;2;2;
55754;PMS5003;41674;52.290;-1.474;2023-04-24T09:28:59;2;2;
55754;PMS5003;41674;52.290;-1.474;2023-04-24T09:31:29;2;2;
55754;PMS5003;41674;52.290;-1.474;2023-04-24T09:33:59;3;3;
55754;PMS5003;41674;52.290;-1.474;2023-04-24T09:36:29;3;3;
55754;PMS5003;41674;52.290;-1.474;2023-04-24T09:38:58;5;3;
55754;PMS5003;41674;52.290;-1.474;2023-04-24T09:41:27;5;3;
55754;PMS5003;41674;52.290;-1.474;2023-04-24T09:43:57;3;3;
55754;PMS5003;41674;52.290;-1.474;2023-04-24T09:46:29;2;2;
55754;PMS5003;41674;52.290;-1.474;2023-04-24T09:48:56;2;2;
55754;PMS5003;41674;52.290;-1.474;2023-04-24T09:53:55;2;2;
55754;PMS5003;41674;52.290;-1.474;2023-04-24T09:56:24;4;3;
55754;PMS5003;41674;52.290;-1.474;2023-04-24T09:58:54;4;4;
55754;PMS5003;41674;52.290;-1.474;2023-04-24T10:03:53;3;3;
55754;PMS5003;41674;52.290;-1.474;2023-04-24T10:06:22;7;6;
55754;PMS5003;41674;52.290;-1.474;2023-04-24T10:08:52;5;4;
55754;PMS5003;41674;52.290;-1.474;2023-04-24T10:11:21;8;6;
55754;PMS5003;41674;52.290;-1.474;2023-04-24T10:13:51;5;5;
55754;PMS5003;41674;52.290;-1.474;2023-04-24T10:16:21;3;3;
55754;PMS5003;41674;52.290;-1.474;2023-04-24T10:18:50;5;4;
55754;PMS5003;41674;52.290;-1.474;2023-04-24T10:21:20;3;3;
55754;PMS5003;41674;52.290;-1.474;2023-04-24T10:23:49;7;5;
55754;PMS5003;41674;52.290;-1.474;2023-04-24T10:26:19;6;6;
55754;PMS5003;41674;52.290;-1.474;2023-04-24T10:28:49;3;3;
55754;PMS5003;41674;52.290;-1.474;2023-04-24T10:31:18;5;5;
55754;PMS5003;41674;52.290;-1.474;2023-04-24T10:33:48;7;4;
55754;PMS5003;41674;52.290;-1.474;2023-04-24T10:36:17;2;2;
55754;PMS5003;41674;52.290;-1.474;2023-04-24T10:38:47;3;3;
55754;PMS5003;41674;52.290;-1.474;2023-04-24T10:41:17;6;6;
55754;PMS5003;41674;52.290;-1.474;2023-04-24T10:43:46;4;4;
55754;PMS5003;41674;52.290;-1.474;2023-04-24T10:46:16;6;6;
55754;PMS5003;41674;52.290;-1.474;2023-04-24T10:48:51;6;6;
55754;PMS5003;41674;52.290;-1.474;2023-04-24T10:51:15;6;5;
55754;PMS5003;41674;52.290;-1.474;2023-04-24T10:53:45;6;5;
55754;PMS5003;41674;52.290;-1.474;2023-04-24T10:56:15;4;4;
55754;PMS5003;41674;52.290;-1.474;2023-04-24T10:58:44;7;5;
55754;PMS5003;41674;52.290;-1.474;2023-04-24T11:03:50;7;5;
55754;PMS5003;41674;52.290;-1.474;2023-04-24T11:06:12;5;4;
55754;PMS5003;41674;52.290;-1.474;2023-04-24T11:08:43;5;5;
55754;PMS5003;41674;52.290;-1.474;2023-04-24T11:16:14;4;4;
55754;PMS5003;41674;52.290;-1.474;2023-04-24T11:18:41;4;4;
55754;PMS5003;41674;52.290;-1.474;2023-04-24T11:21:10;8;4;
55754;PMS5003;41674;52.290;-1.474;2023-04-24T11:23:39;6;4;
55754;PMS5003;41674;52.290;-1.474;2023-04-24T11:26:17;5;4;
55754;PMS5003;41674;52.290;-1.474;2023-04-24T11:33:37;8;8;
55754;PMS5003;41674;52.290;-1.474;2023-04-24T11:36:07;2;2;
55754;PMS5003;41674;52.290;-1.474;2023-04-24T11:38:36;6;4;
55754;PMS5003;41674;52.290;-1.474;2023-04-24T11:41:06;4;4;
55754;PMS5003;41674;52.290;-1.474;2023-04-24T11:43:36;7;6;
55754;PMS5003;41674;52.290;-1.474;2023-04-24T11:46:05;4;4;
55754;PMS5003;41674;52.290;-1.474;2023-04-24T11:48:35;6;5;
55754;PMS5003;41674;52.290;-1.474;2023-04-24T11:51:05;5;4;
55754;PMS5003;41674;52.290;-1.474;2023-04-24T11:53:34;6;6;
55754;PMS5003;41674;52.290;-1.474;2023-04-24T11:56:04;6;6;
55754;PMS5003;41674;52.290;-1.474;2023-04-24T11:58:34;7;7;
55754;PMS5003;41674;52.290;-1.474;2023-04-24T12:01:04;6;6;
55754;PMS5003;41674;52.290;-1.474;2023-04-24T12:03:32;5;5;
55754;PMS5003;41674;52.290;-1.474;2023-04-24T12:06:06;7;6;
55754;PMS5003;41674;52.290;-1.474;2023-04-24T12:08:32;6;6;
55754;PMS5003;41674;52.290;-1.474;2023-04-24T12:11:01;5;5;
55754;PMS5003;41674;52.290;-1.474;2023-04-24T12:13:31;7;7;
55754;PMS5003;41674;52.290;-1.474;2023-04-24T12:16:02;6;6;
55754;PMS5003;41674;52.290;-1.474;2023-04-24T12:18:30;8;5;
55754;PMS5003;41674;52.290;-1.474;2023-04-24T12:23:33;6;6;
55754;PMS5003;41674;52.290;-1.474;2023-04-24T12:25:59;4;4;
55754;PMS5003;41674;52.290;-1.474;2023-04-24T12:30:58;5;4;
55754;PMS5003;41674;52.290;-1.474;2023-04-24T12:33:28;4;4;
55754;PMS5003;41674;52.290;-1.474;2023-04-24T12:35:57;5;5;
55754;PMS5003;41674;52.290;-1.474;2023-04-24T12:38:27;5;5;
55754;PMS5003;41674;52.290;-1.474;2023-04-24T12:41:02;4;4;
55754;PMS5003;41674;52.290;-1.474;2023-04-24T12:43:26;4;4;
55754;PMS5003;41674;52.290;-1.474;2023-04-24T12:45:56;5;4;
55754;PMS5003;41674;52.290;-1.474;2023-04-24T12:48:25;8;7;
55754;PMS5003;41674;52.290;-1.474;2023-04-24T12:50:55;6;5;
55754;PMS5003;41674;52.290;-1.474;2023-04-24T12:53:25;4;4;
55754;PMS5003;41674;52.290;-1.474;2023-04-24T12:55:54;6;5;
55754;PMS5003;41674;52.290;-1.474;2023-04-24T12:58:24;4;4;
55754;PMS5003;41674;52.290;-1.474;2023-04-24T13:00:53;5;5;
55754;PMS5003;41674;52.290;-1.474;2023-04-24T13:03:23;5;5;
55754;PMS5003;41674;52.290;-1.474;2023-04-24T13:05:52;8;5;
55754;PMS5003;41674;52.290;-1.474;2023-04-24T13:08:22;5;5;
55754;PMS5003;41674;52.290;-1.474;2023-04-24T13:10:52;6;4;
55754;PMS5003;41674;52.290;-1.474;2023-04-24T13:13:21;8;5;
55754;PMS5003;41674;52.290;-1.474;2023-04-24T13:15:51;5;5;
55754;PMS5003;41674;52.290;-1.474;2023-04-24T13:18:20;6;6;
55754;PMS5003;41674;52.290;-1.474;2023-04-24T13:20:50;7;7;
55754;PMS5003;41674;52.290;-1.474;2023-04-24T13:23:20;8;8;
55754;PMS5003;41674;52.290;-1.474;2023-04-24T13:25:54;9;8;
55754;PMS5003;41674;52.290;-1.474;2023-04-24T13:28:18;7;6;
55754;PMS5003;41674;52.290;-1.474;2023-04-24T13:30:48;7;6;
55754;PMS5003;41674;52.290;-1.474;2023-04-24T13:33:18;10;7;
55754;PMS5003;41674;52.290;-1.474;2023-04-24T13:35:47;7;5;
55754;PMS5003;41674;52.290;-1.474;2023-04-24T13:38:17;6;6;
55754;PMS5003;41674;52.290;-1.474;2023-04-24T13:40:46;7;7;
55754;PMS5003;41674;52.290;-1.474;2023-04-24T13:43:16;6;6;
55754;PMS5003;41674;52.290;-1.474;2023-04-24T13:45:46;6;5;
55754;PMS5003;41674;52.290;-1.474;2023-04-24T13:48:15;5;5;
55754;PMS5003;41674;52.290;-1.474;2023-04-24T13:50:45;6;6;
55754;PMS5003;41674;52.290;-1.474;2023-04-24T13:53:15;6;6;
55754;PMS5003;41674;52.290;-1.474;2023-04-24T13:55:44;5;5;
55754;PMS5003;41674;52.290;-1.474;2023-04-24T13:58:14;5;5;
55754;PMS5003;41674;52.290;-1.474;2023-04-24T14:00:43;6;6;
55754;PMS5003;41674;52.290;-1.474;2023-04-24T14:03:13;8;6;
55754;PMS5003;41674;52.290;-1.474;2023-04-24T14:05:43;7;6;
55754;PMS5003;41674;52.290;-1.474;2023-04-24T14:08:12;6;6;
55754;PMS5003;41674;52.290;-1.474;2023-04-24T14:10:42;5;5;
55754;PMS5003;41674;52.290;-1.474;2023-04-24T14:13:11;5;5;
55754;PMS5003;41674;52.290;-1.474;2023-04-24T14:15:41;8;6;
55754;PMS5003;41674;52.290;-1.474;2023-04-24T14:18:11;7;7;
55754;PMS5003;41674;52.290;-1.474;2023-04-24T14:20:41;7;7;
55754;PMS5003;41674;52.290;-1.474;2023-04-24T14:23:10;8;7;
55754;PMS5003;41674;52.290;-1.474;2023-04-24T14:25:40;5;5;
55754;PMS5003;41674;52.290;-1.474;2023-04-24T14:28:09;6;6;
55754;PMS5003;41674;52.290;-1.474;2023-04-24T14:30:39;7;7;
55754;PMS5003;41674;52.290;-1.474;2023-04-24T14:33:09;5;5;
55754;PMS5003;41674;52.290;-1.474;2023-04-24T14:35:38;6;5;
55754;PMS5003;41674;52.290;-1.474;2023-04-24T14:38:08;8;7;
55754;PMS5003;41674;52.290;-1.474;2023-04-24T14:40:37;7;7;
55754;PMS5003;41674;52.290;-1.474;2023-04-24T14:43:07;8;6;
55754;PMS5003;41674;52.290;-1.474;2023-04-24T14:45:37;9;7;
55754;PMS5003;41674;52.290;-1.474;2023-04-24T14:48:06;7;7;
55754;PMS5003;41674;52.290;-1.474;2023-04-24T14:50:36;7;7;
55754;PMS5003;41674;52.290;-1.474;2023-04-24T14:53:05;7;7;
55754;PMS5003;41674;52.290;-1.474;2023-04-24T14:55:35;10;8;
55754;PMS5003;41674;52.290;-1.474;2023-04-24T14:58:04;8;8;
55754;PMS5003;41674;52.290;-1.474;2023-04-24T15:03:04;11;8;
55754;PMS5003;41674;52.290;-1.474;2023-04-24T15:05:33;11;8;
55754;PMS5003;41674;52.290;-1.474;2023-04-24T15:08:03;8;6;
55754;PMS5003;41674;52.290;-1.474;2023-04-24T15:10:32;7;7;
55754;PMS5003;41674;52.290;-1.474;2023-04-24T15:13:02;7;5;
55754;PMS5003;41674;52.290;-1.474;2023-04-24T15:15:31;9;7;
55754;PMS5003;41674;52.290;-1.474;2023-04-24T15:18:01;6;6;
55754;PMS5003;41674;52.290;-1.474;2023-04-24T15:20:30;11;8;
55754;PMS5003;41674;52.290;-1.474;2023-04-24T15:23:00;7;7;
55754;PMS5003;41674;52.290;-1.474;2023-04-24T15:25:29;8;8;
55754;PMS5003;41674;52.290;-1.474;2023-04-24T15:27:59;7;7;
55754;PMS5003;41674;52.290;-1.474;2023-04-24T15:30:29;7;7;
55754;PMS5003;41674;52.290;-1.474;2023-04-24T15:32:59;10;10;
55754;PMS5003;41674;52.290;-1.474;2023-04-24T15:35:28;7;7;
55754;PMS5003;41674;52.290;-1.474;2023-04-24T15:37:57;8;8;
55754;PMS5003;41674;52.290;-1.474;2023-04-24T15:40:27;9;8;
55754;PMS5003;41674;52.290;-1.474;2023-04-24T15:42:57;7;6;
55754;PMS5003;41674;52.290;-1.474;2023-04-24T15:45:26;8;8;
55754;PMS5003;41674;52.290;-1.474;2023-04-24T15:47:55;8;8;
55754;PMS5003;41674;52.290;-1.474;2023-04-24T15:50:25;7;7;
55754;PMS5003;41674;52.290;-1.474;2023-04-24T15:52:55;11;10;
55754;PMS5003;41674;52.290;-1.474;2023-04-24T15:55:24;9;9;
55754;PMS5003;41674;52.290;-1.474;2023-04-24T15:57:54;8;7;
55754;PMS5003;41674;52.290;-1.474;2023-04-24T16:00:24;8;8;
55754;PMS5003;41674;52.290;-1.474;2023-04-24T16:02:53;9;8;
55754;PMS5003;41674;52.290;-1.474;2023-04-24T16:05:23;11;9;
55754;PMS5003;41674;52.290;-1.474;2023-04-24T16:07:52;8;8;
55754;PMS5003;41674;52.290;-1.474;2023-04-24T16:10:22;9;6;
55754;PMS5003;41674;52.290;-1.474;2023-04-24T16:12:52;12;10;
55754;PMS5003;41674;52.290;-1.474;2023-04-24T16:15:21;9;9;
55754;PMS5003;41674;52.290;-1.474;2023-04-24T16:17:51;11;9;
55754;PMS5003;41674;52.290;-1.474;2023-04-24T16:20:20;10;8;
55754;PMS5003;41674;52.290;-1.474;2023-04-24T16:22:50;9;9;
55754;PMS5003;41674;52.290;-1.474;2023-04-24T16:25:19;12;9;
55754;PMS5003;41674;52.290;-1.474;2023-04-24T16:27:49;9;9;
55754;PMS5003;41674;52.290;-1.474;2023-04-24T16:30:19;11;9;
55754;PMS5003;41674;52.290;-1.474;2023-04-24T16:32:48;14;13;
55754;PMS5003;41674;52.290;-1.474;2023-04-24T16:35:18;21;18;
55754;PMS5003;41674;52.290;-1.474;2023-04-24T16:37:47;11;11;
55754;PMS5003;41674;52.290;-1.474;2023-04-24T16:40:17;20;20;
55754;PMS5003;41674;52.290;-1.474;2023-04-24T16:42:46;13;10;
55754;PMS5003;41674;52.290;-1.474;2023-04-24T16:45:16;15;14;
55754;PMS5003;41674;52.290;-1.474;2023-04-24T16:47:45;12;10;
55754;PMS5003;41674;52.290;-1.474;2023-04-24T16:50:15;15;11;
55754;PMS5003;41674;52.290;-1.474;2023-04-24T16:52:44;14;9;
55754;PMS5003;41674;52.290;-1.474;2023-04-24T16:55:14;14;11;
55754;PMS5003;41674;52.290;-1.474;2023-04-24T16:57:44;11;10;
55754;PMS5003;41674;52.290;-1.474;2023-04-24T17:00:14;13;9;
55754;PMS5003;41674;52.290;-1.474;2023-04-24T17:02:43;10;9;
55754;PMS5003;41674;52.290;-1.474;2023-04-24T17:05:12;11;9;
55754;PMS5003;41674;52.290;-1.474;2023-04-24T17:07:42;11;11;
55754;PMS5003;41674;52.290;-1.474;2023-04-24T17:10:12;12;10;
55754;PMS5003;41674;52.290;-1.474;2023-04-24T17:12:40;14;12;